createdAt,value
2018-08-18T00:00:42.802Z,1019.19
2018-08-18T00:01:42.795Z,1019.19
2018-08-18T00:02:52.198Z,1019.13
2018-08-18T00:03:42.776Z,1019.16
2018-08-18T00:04:42.762Z,1019.18
2018-08-18T00:05:50.708Z,1019.20
2018-08-18T00:06:42.735Z,1019.20
2018-08-18T00:07:42.764Z,1019.13
2018-08-18T00:08:50.730Z,1019.21
2018-08-18T00:09:42.702Z,1019.17
2018-08-18T00:10:42.694Z,1019.21
2018-08-18T00:11:50.260Z,1019.31
2018-08-18T00:12:42.704Z,1019.24
2018-08-18T00:13:42.667Z,1019.26
2018-08-18T00:14:51.817Z,1019.25
2018-08-18T00:15:42.638Z,1019.25
2018-08-18T00:16:42.664Z,1019.24
2018-08-18T00:17:50.344Z,1019.25
2018-08-18T00:18:42.609Z,1019.23
2018-08-18T00:19:42.643Z,1019.22
2018-08-18T00:20:51.384Z,1019.26
2018-08-18T00:21:42.578Z,1019.23
2018-08-18T00:22:42.560Z,1019.26
2018-08-18T00:23:42.562Z,1019.30
2018-08-18T00:24:42.593Z,1019.18
2018-08-18T00:25:42.566Z,1019.27
2018-08-18T00:26:50.408Z,1019.23
2018-08-18T00:27:42.508Z,1019.27
2018-08-18T00:28:42.496Z,1019.25
2018-08-18T00:29:42.480Z,1019.29
2018-08-18T00:30:42.526Z,1019.21
2018-08-18T00:31:42.470Z,1019.25
2018-08-18T00:32:50.454Z,1019.27
2018-08-18T00:33:42.454Z,1019.25
2018-08-18T00:34:42.428Z,1019.29
2018-08-18T00:35:51.514Z,1019.28
2018-08-18T00:36:42.407Z,1019.28
2018-08-18T00:37:42.440Z,1019.27
2018-08-18T00:38:50.014Z,1019.22
2018-08-18T00:39:42.371Z,1019.27
2018-08-18T00:40:42.392Z,1019.26
2018-08-18T00:41:42.332Z,1019.29
2018-08-18T00:42:42.333Z,1019.25
2018-08-18T00:43:42.345Z,1019.29
2018-08-18T00:44:42.311Z,1019.24
2018-08-18T00:45:42.310Z,1019.25
2018-08-18T00:46:42.275Z,1019.32
2018-08-18T00:47:51.559Z,1019.27
2018-08-18T00:48:42.296Z,1019.26
2018-08-18T00:49:42.247Z,1019.29
2018-08-18T00:50:42.264Z,1019.30
2018-08-18T00:51:42.224Z,1019.31
2018-08-18T00:52:42.236Z,1019.33
2018-08-18T00:53:50.071Z,1019.31
2018-08-18T00:54:42.227Z,1019.32
2018-08-18T00:55:42.187Z,1019.29
2018-08-18T00:56:42.175Z,1019.26
2018-08-18T00:57:42.207Z,1019.30
2018-08-18T00:58:42.164Z,1019.31
2018-08-18T00:59:50.109Z,1019.31
2018-08-18T01:00:42.161Z,1019.32
2018-08-18T01:01:42.117Z,1019.36
2018-08-18T01:02:55.687Z,1019.31
2018-08-18T01:03:42.099Z,1019.35
2018-08-18T01:04:42.102Z,1019.34
2018-08-18T01:05:49.705Z,1019.36
2018-08-18T01:06:42.064Z,1019.35
2018-08-18T01:07:42.086Z,1019.36
2018-08-18T01:08:49.748Z,1019.36
2018-08-18T01:09:42.028Z,1019.37
2018-08-18T01:10:42.024Z,1019.35
2018-08-18T01:11:42.205Z,1019.39
2018-08-18T01:12:42.082Z,1019.39
2018-08-18T01:13:42.033Z,1019.42
2018-08-18T01:14:41.985Z,1019.43
2018-08-18T01:15:42.042Z,1019.41
2018-08-18T01:16:41.950Z,1019.46
2018-08-18T01:17:41.974Z,1019.44
2018-08-18T01:18:41.940Z,1019.45
2018-08-18T01:19:41.955Z,1019.47
2018-08-18T01:20:41.910Z,1019.50
2018-08-18T01:21:41.903Z,1019.51
2018-08-18T01:22:41.928Z,1019.52
2018-08-18T01:23:51.302Z,1019.51
2018-08-18T01:24:41.858Z,1019.51
2018-08-18T01:25:41.852Z,1019.49
2018-08-18T01:26:49.828Z,1019.55
2018-08-18T01:27:41.819Z,1019.53
2018-08-18T01:28:41.818Z,1019.50
2018-08-18T01:29:51.872Z,1019.47
2018-08-18T01:30:41.816Z,1019.50
2018-08-18T01:31:41.773Z,1019.51
2018-08-18T01:32:41.769Z,1019.58
2018-08-18T01:33:41.762Z,1019.59
2018-08-18T01:34:41.787Z,1019.51
2018-08-18T01:35:41.739Z,1019.62
2018-08-18T01:36:41.730Z,1019.58
2018-08-18T01:37:41.719Z,1019.51
2018-08-18T01:38:49.381Z,1019.59
2018-08-18T01:39:41.713Z,1019.58
2018-08-18T01:40:41.667Z,1019.57
2018-08-18T01:41:50.939Z,1019.62
2018-08-18T01:42:41.653Z,1019.61
2018-08-18T01:43:41.651Z,1019.58
2018-08-18T01:44:41.639Z,1019.57
2018-08-18T01:45:41.622Z,1019.59
2018-08-18T01:46:41.609Z,1019.60
2018-08-18T01:47:50.983Z,1019.60
2018-08-18T01:48:41.582Z,1019.57
2018-08-18T01:49:41.577Z,1019.59
2018-08-18T01:50:49.504Z,1019.57
2018-08-18T01:51:41.589Z,1019.63
2018-08-18T01:52:41.576Z,1019.64
2018-08-18T01:53:41.550Z,1019.62
2018-08-18T01:54:41.516Z,1019.62
2018-08-18T01:55:41.514Z,1019.66
2018-08-18T01:56:49.034Z,1019.60
2018-08-18T01:57:41.517Z,1019.64
2018-08-18T01:58:41.485Z,1019.65
2018-08-18T01:59:49.062Z,1019.65
2018-08-18T02:00:41.482Z,1019.64
2018-08-18T02:01:41.442Z,1019.66
2018-08-18T02:02:50.623Z,1019.64
2018-08-18T02:03:41.422Z,1019.73
2018-08-18T02:04:41.412Z,1019.76
2018-08-18T02:05:49.120Z,1019.72
2018-08-18T02:06:41.386Z,1019.76
2018-08-18T02:07:41.412Z,1019.76
2018-08-18T02:08:49.664Z,1019.72
2018-08-18T02:09:41.354Z,1019.71
2018-08-18T02:10:41.354Z,1019.70
2018-08-18T02:11:49.190Z,1019.70
2018-08-18T02:12:41.350Z,1019.73
2018-08-18T02:13:41.298Z,1019.68
2018-08-18T02:14:49.221Z,1019.74
2018-08-18T02:15:41.290Z,1019.75
2018-08-18T02:16:41.262Z,1019.65
2018-08-18T02:17:50.765Z,1019.70
2018-08-18T02:18:41.243Z,1019.65
2018-08-18T02:19:41.228Z,1019.64
2018-08-18T02:20:48.788Z,1019.63
2018-08-18T02:21:41.219Z,1019.65
2018-08-18T02:22:41.240Z,1019.72
2018-08-18T02:23:48.822Z,1019.69
2018-08-18T02:24:41.192Z,1019.69
2018-08-18T02:25:41.168Z,1019.69
2018-08-18T02:26:49.854Z,1019.74
2018-08-18T02:27:41.274Z,1019.72
2018-08-18T02:28:41.130Z,1019.78
2018-08-18T02:29:48.891Z,1019.76
2018-08-18T02:30:41.104Z,1019.74
2018-08-18T02:31:41.084Z,1019.78
2018-08-18T02:32:49.446Z,1019.76
2018-08-18T02:33:41.073Z,1019.74
2018-08-18T02:34:41.052Z,1019.78
2018-08-18T02:35:50.459Z,1019.77
2018-08-18T02:36:41.041Z,1019.74
2018-08-18T02:37:41.032Z,1019.75
2018-08-18T02:38:48.980Z,1019.78
2018-08-18T02:39:40.996Z,1019.76
2018-08-18T02:40:41.018Z,1019.81
2018-08-18T02:41:48.527Z,1019.77
2018-08-18T02:42:40.973Z,1019.76
2018-08-18T02:43:40.961Z,1019.74
2018-08-18T02:44:48.549Z,1019.75
2018-08-18T02:45:40.973Z,1019.71
2018-08-18T02:46:40.919Z,1019.74
2018-08-18T02:47:40.916Z,1019.74
2018-08-18T02:48:40.898Z,1019.74
2018-08-18T02:49:40.903Z,1019.73
2018-08-18T02:50:40.929Z,1019.84
2018-08-18T02:51:40.876Z,1019.76
2018-08-18T02:52:40.871Z,1019.81
2018-08-18T02:53:40.864Z,1019.79
2018-08-18T02:54:40.872Z,1019.81
2018-08-18T02:55:40.878Z,1019.82
2018-08-18T02:56:48.594Z,1019.78
2018-08-18T02:57:40.813Z,1019.78
2018-08-18T02:58:40.794Z,1019.81
2018-08-18T02:59:40.783Z,1019.80
2018-08-18T03:00:40.816Z,1019.78
2018-08-18T03:01:40.765Z,1019.77
2018-08-18T03:02:48.634Z,1019.78
2018-08-18T03:03:40.736Z,1019.76
2018-08-18T03:04:40.728Z,1019.77
2018-08-18T03:05:49.212Z,1019.76
2018-08-18T03:06:40.707Z,1019.84
2018-08-18T03:07:40.696Z,1019.82
2018-08-18T03:08:40.677Z,1019.84
2018-08-18T03:09:40.672Z,1019.81
2018-08-18T03:10:40.699Z,1019.86
2018-08-18T03:11:40.649Z,1019.80
2018-08-18T03:12:40.672Z,1019.83
2018-08-18T03:13:40.620Z,1019.83
2018-08-18T03:14:48.206Z,1019.81
2018-08-18T03:15:40.595Z,1019.77
2018-08-18T03:16:40.609Z,1019.81
2018-08-18T03:17:40.597Z,1019.80
2018-08-18T03:18:40.558Z,1019.85
2018-08-18T03:19:40.554Z,1019.84
2018-08-18T03:20:40.543Z,1019.84
2018-08-18T03:21:40.517Z,1019.86
2018-08-18T03:22:40.549Z,1019.87
2018-08-18T03:23:48.224Z,1019.89
2018-08-18T03:24:40.491Z,1019.87
2018-08-18T03:25:40.482Z,1019.85
2018-08-18T03:26:40.461Z,1019.83
2018-08-18T03:27:40.489Z,1019.85
2018-08-18T03:28:40.437Z,1019.83
2018-08-18T03:29:49.773Z,1019.84
2018-08-18T03:30:40.424Z,1019.87
2018-08-18T03:31:40.416Z,1019.91
2018-08-18T03:32:40.397Z,1019.86
2018-08-18T03:33:40.387Z,1019.87
2018-08-18T03:34:40.393Z,1019.88
2018-08-18T03:35:48.277Z,1019.89
2018-08-18T03:36:40.351Z,1019.94
2018-08-18T03:37:40.337Z,1019.94
2018-08-18T03:38:48.330Z,1019.97
2018-08-18T03:39:40.368Z,1019.99
2018-08-18T03:40:40.312Z,1019.98
2018-08-18T03:41:47.861Z,1019.99
2018-08-18T03:42:40.292Z,1019.96
2018-08-18T03:43:40.278Z,1019.92
2018-08-18T03:44:49.427Z,1019.94
2018-08-18T03:45:40.260Z,1019.94
2018-08-18T03:46:40.244Z,1019.93
2018-08-18T03:47:40.239Z,1019.95
2018-08-18T03:48:40.224Z,1019.95
2018-08-18T03:49:40.274Z,1019.92
2018-08-18T03:50:40.206Z,1019.97
2018-08-18T03:51:40.186Z,1019.98
2018-08-18T03:52:40.185Z,1019.99
2018-08-18T03:53:47.929Z,1020.01
2018-08-18T03:54:40.190Z,1019.99
2018-08-18T03:55:40.182Z,1020.04
2018-08-18T03:56:48.020Z,1020.04
2018-08-18T03:57:40.122Z,1020.00
2018-08-18T03:58:40.112Z,1020.00
2018-08-18T03:59:47.996Z,1020.02
2018-08-18T04:00:40.120Z,1020.03
2018-08-18T04:01:40.138Z,1020.08
2018-08-18T04:02:40.055Z,1020.07
2018-08-18T04:03:40.053Z,1020.02
2018-08-18T04:04:40.028Z,1020.05
2018-08-18T04:05:50.565Z,1020.04
2018-08-18T04:06:40.019Z,1020.03
2018-08-18T04:07:40.015Z,1020.04
2018-08-18T04:08:39.985Z,1020.07
2018-08-18T04:09:39.973Z,1020.08
2018-08-18T04:10:39.997Z,1020.09
2018-08-18T04:11:47.556Z,1020.08
2018-08-18T04:12:39.971Z,1020.10
2018-08-18T04:13:39.929Z,1020.11
2018-08-18T04:14:48.586Z,1020.09
2018-08-18T04:15:39.959Z,1020.10
2018-08-18T04:16:39.891Z,1020.11
2018-08-18T04:17:39.885Z,1020.12
2018-08-18T04:18:39.873Z,1020.20
2018-08-18T04:19:39.865Z,1020.19
2018-08-18T04:20:49.135Z,1020.22
2018-08-18T04:21:39.833Z,1020.22
2018-08-18T04:22:39.836Z,1020.19
2018-08-18T04:23:47.660Z,1020.22
2018-08-18T04:24:39.810Z,1020.27
2018-08-18T04:25:39.820Z,1020.20
2018-08-18T04:26:49.228Z,1020.22
2018-08-18T04:27:39.779Z,1020.20
2018-08-18T04:28:39.766Z,1020.24
2018-08-18T04:29:49.269Z,1020.26
2018-08-18T04:30:39.787Z,1020.24
2018-08-18T04:31:39.744Z,1020.28
2018-08-18T04:32:47.270Z,1020.33
2018-08-18T04:33:39.718Z,1020.35
2018-08-18T04:34:39.701Z,1020.32
2018-08-18T04:35:48.823Z,1020.35
2018-08-18T04:36:39.675Z,1020.35
2018-08-18T04:37:39.672Z,1020.34
2018-08-18T04:38:47.334Z,1020.36
2018-08-18T04:39:39.639Z,1020.40
2018-08-18T04:40:39.659Z,1020.46
2018-08-18T04:41:39.626Z,1020.39
2018-08-18T04:42:39.614Z,1020.38
2018-08-18T04:43:39.640Z,1020.44
2018-08-18T04:44:39.588Z,1020.40
2018-08-18T04:45:39.615Z,1020.38
2018-08-18T04:46:39.565Z,1020.43
2018-08-18T04:47:47.364Z,1020.41
2018-08-18T04:48:39.543Z,1020.43
2018-08-18T04:49:39.522Z,1020.41
2018-08-18T04:50:39.644Z,1020.45
2018-08-18T04:51:39.497Z,1020.47
2018-08-18T04:52:39.492Z,1020.45
2018-08-18T04:53:47.394Z,1020.42
2018-08-18T04:54:39.463Z,1020.41
2018-08-18T04:55:39.507Z,1020.44
2018-08-18T04:56:47.463Z,1020.40
2018-08-18T04:57:39.421Z,1020.36
2018-08-18T04:58:39.419Z,1020.37
2018-08-18T04:59:39.413Z,1020.46
2018-08-18T05:00:39.433Z,1020.41
2018-08-18T05:01:39.397Z,1020.41
2018-08-18T05:02:47.503Z,1020.41
2018-08-18T05:03:39.356Z,1020.42
2018-08-18T05:04:39.352Z,1020.46
2018-08-18T05:05:39.347Z,1020.44
2018-08-18T05:06:39.364Z,1020.48
2018-08-18T05:07:39.313Z,1020.48
2018-08-18T05:08:46.998Z,1020.49
2018-08-18T05:09:39.306Z,1020.50
2018-08-18T05:10:39.284Z,1020.55
2018-08-18T05:11:39.390Z,1020.51
2018-08-18T05:12:39.266Z,1020.47
2018-08-18T05:13:39.254Z,1020.48
2018-08-18T05:14:39.249Z,1020.53
2018-08-18T05:15:39.244Z,1020.55
2018-08-18T05:16:39.284Z,1020.53
2018-08-18T05:17:47.532Z,1020.52
2018-08-18T05:18:39.194Z,1020.57
2018-08-18T05:19:39.184Z,1020.57
2018-08-18T05:20:47.056Z,1020.54
2018-08-18T05:21:39.186Z,1020.49
2018-08-18T05:22:39.182Z,1020.45
2018-08-18T05:23:39.129Z,1020.47
2018-08-18T05:24:39.118Z,1020.44
2018-08-18T05:25:39.118Z,1020.45
2018-08-18T05:26:39.113Z,1020.44
2018-08-18T05:27:39.122Z,1020.44
2018-08-18T05:28:39.118Z,1020.51
2018-08-18T05:29:47.091Z,1020.50
2018-08-18T05:30:39.059Z,1020.55
2018-08-18T05:31:39.035Z,1020.50
2018-08-18T05:32:46.631Z,1020.50
2018-08-18T05:33:39.073Z,1020.52
2018-08-18T05:34:39.025Z,1020.53
2018-08-18T05:35:46.662Z,1020.51
2018-08-18T05:36:39.090Z,1020.56
2018-08-18T05:37:38.976Z,1020.49
2018-08-18T05:38:39.002Z,1020.54
2018-08-18T05:39:38.964Z,1020.49
2018-08-18T05:40:38.946Z,1020.52
2018-08-18T05:41:46.694Z,1020.49
2018-08-18T05:42:38.928Z,1020.54
2018-08-18T05:43:38.956Z,1020.53
2018-08-18T05:44:38.902Z,1020.51
2018-08-18T05:45:38.897Z,1020.56
2018-08-18T05:46:38.880Z,1020.50
2018-08-18T05:47:46.736Z,1020.53
2018-08-18T05:48:38.886Z,1020.51
2018-08-18T05:49:38.851Z,1020.58
2018-08-18T05:50:46.772Z,1020.50
2018-08-18T05:51:38.824Z,1020.53
2018-08-18T05:52:38.818Z,1020.54
2018-08-18T05:53:38.840Z,1020.51
2018-08-18T05:54:38.790Z,1020.50
2018-08-18T05:55:38.800Z,1020.50
2018-08-18T05:56:38.756Z,1020.55
2018-08-18T05:57:38.751Z,1020.54
2018-08-18T05:58:38.743Z,1020.53
2018-08-18T05:59:38.795Z,1020.49
2018-08-18T06:00:38.763Z,1020.53
2018-08-18T06:01:38.702Z,1020.51
2018-08-18T06:02:46.289Z,1020.47
2018-08-18T06:03:38.683Z,1020.47
2018-08-18T06:04:38.664Z,1020.40
2018-08-18T06:05:47.891Z,1020.49
2018-08-18T06:06:38.640Z,1020.45
2018-08-18T06:07:38.641Z,1020.45
2018-08-18T06:08:38.615Z,1020.47
2018-08-18T06:09:38.651Z,1020.46
2018-08-18T06:10:38.609Z,1020.46
2018-08-18T06:11:46.362Z,1020.44
2018-08-18T06:12:38.609Z,1020.44
2018-08-18T06:13:38.593Z,1020.43
2018-08-18T06:14:46.403Z,1020.41
2018-08-18T06:15:38.597Z,1020.39
2018-08-18T06:16:38.529Z,1020.39
2018-08-18T06:17:38.521Z,1020.44
2018-08-18T06:18:38.551Z,1020.42
2018-08-18T06:19:38.519Z,1020.44
2018-08-18T06:20:38.502Z,1020.40
2018-08-18T06:21:38.530Z,1020.41
2018-08-18T06:22:38.476Z,1020.45
2018-08-18T06:23:47.962Z,1020.49
2018-08-18T06:24:38.452Z,1020.54
2018-08-18T06:25:38.446Z,1020.52
2018-08-18T06:26:45.992Z,1020.50
2018-08-18T06:27:38.431Z,1020.47
2018-08-18T06:28:38.447Z,1020.48
2018-08-18T06:29:38.402Z,1020.46
2018-08-18T06:30:38.396Z,1020.44
2018-08-18T06:31:38.362Z,1020.45
2018-08-18T06:34:05.242Z,1020.43
2018-08-18T06:35:05.215Z,1020.47
2018-08-18T06:36:14.511Z,1020.47
2018-08-18T06:37:05.181Z,1020.48
2018-08-18T06:38:05.170Z,1020.50
2018-08-18T06:39:05.172Z,1020.55
2018-08-18T06:40:05.180Z,1020.57
2018-08-18T06:41:05.260Z,1020.60
2018-08-18T06:42:13.017Z,1020.59
2018-08-18T06:43:05.127Z,1020.58
2018-08-18T06:44:05.106Z,1020.63
2018-08-18T06:45:17.087Z,1020.63
2018-08-18T06:46:05.101Z,1020.70
2018-08-18T06:47:05.062Z,1020.67
2018-08-18T06:48:12.597Z,1020.64
2018-08-18T06:49:05.033Z,1020.63
2018-08-18T06:50:05.027Z,1020.64
2018-08-18T06:51:14.169Z,1020.68
2018-08-18T06:52:05.001Z,1020.63
2018-08-18T06:53:05.000Z,1020.61
2018-08-18T06:54:17.736Z,1020.61
2018-08-18T06:55:05.162Z,1020.63
2018-08-18T06:56:05.019Z,1020.64
2018-08-18T06:58:27.858Z,1020.65
2018-08-18T07:00:40.631Z,1020.68
2018-08-18T07:01:40.627Z,1020.71
2018-08-18T07:04:03.435Z,1020.72
2018-08-18T07:05:03.380Z,1020.75
2018-08-18T07:06:16.735Z,1020.75
2018-08-18T07:07:03.388Z,1020.70
2018-08-18T07:08:03.352Z,1020.75
2018-08-18T07:09:11.208Z,1020.71
2018-08-18T07:10:03.324Z,1020.72
2018-08-18T07:11:03.312Z,1020.71
2018-08-18T07:12:03.340Z,1020.70
2018-08-18T07:13:03.302Z,1020.72
2018-08-18T07:14:03.269Z,1020.73
2018-08-18T07:15:11.230Z,1020.73
2018-08-18T07:16:03.248Z,1020.72
2018-08-18T07:17:03.277Z,1020.73
2018-08-18T07:18:12.267Z,1020.74
2018-08-18T07:19:03.219Z,1020.80
2018-08-18T07:20:03.195Z,1020.76
2018-08-18T07:21:10.778Z,1020.82
2018-08-18T07:22:03.182Z,1020.80
2018-08-18T07:23:03.173Z,1020.84
2018-08-18T07:24:12.332Z,1020.86
2018-08-18T07:25:03.149Z,1020.79
2018-08-18T07:26:03.148Z,1020.76
2018-08-18T07:27:03.127Z,1020.76
2018-08-18T07:28:03.149Z,1020.73
2018-08-18T07:29:03.221Z,1020.72
2018-08-18T07:30:03.087Z,1020.76
2018-08-18T07:31:03.140Z,1020.74
2018-08-18T07:32:03.082Z,1020.72
2018-08-18T07:33:03.060Z,1020.77
2018-08-18T07:34:03.056Z,1020.71
2018-08-18T07:35:03.039Z,1020.79
2018-08-18T07:36:03.078Z,1020.78
2018-08-18T07:37:03.082Z,1020.83
2018-08-18T07:38:03.016Z,1020.78
2018-08-18T07:39:12.441Z,1020.74
2018-08-18T07:40:02.984Z,1020.71
2018-08-18T07:41:02.978Z,1020.71
2018-08-18T07:42:03.013Z,1020.76
2018-08-18T07:43:02.957Z,1020.67
2018-08-18T07:44:02.986Z,1020.75
2018-08-18T07:45:10.913Z,1020.80
2018-08-18T07:46:02.918Z,1020.82
2018-08-18T07:47:02.960Z,1020.82
2018-08-18T07:48:10.511Z,1020.81
2018-08-18T07:49:02.922Z,1020.89
2018-08-18T07:50:02.880Z,1020.87
2018-08-18T07:51:02.869Z,1020.88
2018-08-18T07:52:02.920Z,1020.89
2018-08-18T07:53:02.921Z,1020.88
2018-08-18T07:54:11.460Z,1020.87
2018-08-18T07:55:02.820Z,1020.86
2018-08-18T07:56:02.810Z,1020.88
2018-08-18T07:57:02.835Z,1020.79
2018-08-18T07:58:02.791Z,1020.78
2018-08-18T07:59:02.780Z,1020.76
2018-08-18T08:00:02.903Z,1020.78
2018-08-18T08:01:02.784Z,1020.86
2018-08-18T08:02:02.741Z,1020.81
2018-08-18T08:03:10.497Z,1020.81
2018-08-18T08:04:02.710Z,1020.73
2018-08-18T08:05:02.799Z,1020.78
2018-08-18T08:06:02.718Z,1020.84
2018-08-18T08:07:02.674Z,1020.81
2018-08-18T08:08:02.664Z,1020.74
2018-08-18T08:09:10.525Z,1020.77
2018-08-18T08:10:02.646Z,1020.74
2018-08-18T08:11:02.660Z,1020.75
2018-08-18T08:12:02.657Z,1020.71
2018-08-18T08:13:02.654Z,1020.76
2018-08-18T08:14:02.648Z,1020.78
2018-08-18T08:15:10.550Z,1020.72
2018-08-18T08:16:02.578Z,1020.68
2018-08-18T08:17:02.570Z,1020.70
2018-08-18T08:18:02.594Z,1020.74
2018-08-18T08:19:02.549Z,1020.73
2018-08-18T08:20:02.543Z,1020.76
2018-08-18T08:21:02.576Z,1020.71
2018-08-18T08:22:02.524Z,1020.77
2018-08-18T08:23:02.573Z,1020.77
2018-08-18T08:24:10.087Z,1020.76
2018-08-18T08:25:02.486Z,1020.78
2018-08-18T08:26:02.491Z,1020.84
2018-08-18T08:27:10.127Z,1020.77
2018-08-18T08:28:02.450Z,1020.76
2018-08-18T08:29:02.483Z,1020.80
2018-08-18T08:30:10.157Z,1020.78
2018-08-18T08:31:02.431Z,1020.78
2018-08-18T08:32:02.406Z,1020.77
2018-08-18T08:33:11.730Z,1020.79
2018-08-18T08:34:02.390Z,1020.76
2018-08-18T08:35:02.372Z,1020.76
2018-08-18T08:36:11.253Z,1020.78
2018-08-18T08:37:02.352Z,1020.82
2018-08-18T08:38:02.344Z,1020.78
2018-08-18T08:39:02.386Z,1020.81
2018-08-18T08:40:02.319Z,1020.80
2018-08-18T08:41:02.355Z,1020.84
2018-08-18T08:42:10.276Z,1020.78
2018-08-18T08:43:02.290Z,1020.77
2018-08-18T08:44:02.278Z,1020.74
2018-08-18T08:45:02.271Z,1020.71
2018-08-18T08:46:02.308Z,1020.75
2018-08-18T08:47:02.252Z,1020.72
2018-08-18T08:48:02.259Z,1020.77
2018-08-18T08:49:02.310Z,1020.81
2018-08-18T08:50:02.278Z,1020.74
2018-08-18T08:51:02.194Z,1020.77
2018-08-18T08:52:02.375Z,1020.71
2018-08-18T08:53:02.174Z,1020.70
2018-08-18T08:54:02.364Z,1020.67
2018-08-18T08:55:02.200Z,1020.61
2018-08-18T08:56:02.155Z,1020.59
2018-08-18T08:57:09.809Z,1020.65
2018-08-18T08:58:02.109Z,1020.62
2018-08-18T08:59:02.193Z,1020.68
2018-08-18T09:00:02.102Z,1020.66
2018-08-18T09:01:02.106Z,1020.55
2018-08-18T09:02:02.179Z,1020.58
2018-08-18T09:04:24.970Z,1020.52
2018-08-18T09:05:24.874Z,1020.56
2018-08-18T09:06:24.885Z,1020.56
2018-08-18T09:07:24.860Z,1020.59
2018-08-18T09:08:24.890Z,1020.64
2018-08-18T09:09:24.916Z,1020.61
2018-08-18T09:10:24.875Z,1020.65
2018-08-18T09:11:24.854Z,1020.63
2018-08-18T09:12:24.820Z,1020.64
2018-08-18T09:13:24.788Z,1020.65
2018-08-18T09:14:35.177Z,1020.63
2018-08-18T09:15:24.768Z,1020.66
2018-08-18T09:16:24.770Z,1020.52
2018-08-18T09:17:24.800Z,1020.56
2018-08-18T09:18:24.778Z,1020.60
2018-08-18T09:19:24.731Z,1020.95
2018-08-18T09:20:24.769Z,1020.69
2018-08-18T09:21:24.714Z,1020.53
2018-08-18T09:22:24.689Z,1020.78
2018-08-18T09:23:24.718Z,1020.84
2018-08-18T09:24:24.672Z,1020.48
2018-08-18T09:25:24.737Z,1020.46
2018-08-18T09:26:24.689Z,1020.78
2018-08-18T09:27:24.670Z,1020.51
2018-08-18T09:28:24.625Z,1020.52
2018-08-18T09:29:24.618Z,1020.86
2018-08-18T09:30:24.664Z,1020.78
2018-08-18T09:31:24.618Z,1020.87
2018-08-18T09:32:32.159Z,1020.83
2018-08-18T09:33:24.570Z,1020.88
2018-08-18T09:34:24.580Z,1020.88
2018-08-18T09:35:24.565Z,1020.91
2018-08-18T09:36:24.643Z,1020.82
2018-08-18T09:37:24.521Z,1020.85
2018-08-18T09:38:24.511Z,1020.75
2018-08-18T09:39:24.502Z,1020.89
2018-08-18T09:40:24.488Z,1020.86
2018-08-18T09:41:24.509Z,1020.89
2018-08-18T09:42:24.463Z,1020.52
2018-08-18T09:43:24.454Z,1020.82
2018-08-18T09:44:24.448Z,1020.89
2018-08-18T09:45:24.473Z,1020.79
2018-08-18T09:46:24.505Z,1020.90
2018-08-18T09:47:24.426Z,1020.92
2018-08-18T09:48:24.408Z,1020.92
2018-08-18T09:49:24.489Z,1020.92
2018-08-18T09:50:24.384Z,1020.89
2018-08-18T09:51:24.423Z,1020.95
2018-08-18T09:52:24.389Z,1020.94
2018-08-18T09:53:24.377Z,1020.95
2018-08-18T09:54:24.350Z,1020.92
2018-08-18T09:55:24.350Z,1020.55
2018-08-18T09:56:24.380Z,1020.88
2018-08-18T09:57:24.357Z,1020.50
2018-08-18T09:58:24.303Z,1020.85
2018-08-18T09:59:24.414Z,1020.77
2018-08-18T10:00:24.281Z,1020.95
2018-08-18T10:01:24.277Z,1021.00
2018-08-18T10:02:33.749Z,1021.00
2018-08-18T10:03:24.468Z,1020.82
2018-08-18T10:04:24.245Z,1020.97
2018-08-18T10:05:24.247Z,1021.00
2018-08-18T10:06:24.233Z,1020.99
2018-08-18T10:07:24.216Z,1021.00
2018-08-18T10:08:37.792Z,1021.00
2018-08-18T10:09:24.199Z,1020.72
2018-08-18T10:10:24.184Z,1020.95
2018-08-18T10:11:31.806Z,1021.04
2018-08-18T10:12:24.161Z,1021.02
2018-08-18T10:13:24.212Z,1021.02
2018-08-18T10:14:24.151Z,1020.99
2018-08-18T10:15:24.192Z,1021.10
2018-08-18T10:16:24.134Z,1021.09
2018-08-18T10:17:31.833Z,1021.06
2018-08-18T10:18:24.136Z,1021.01
2018-08-18T10:19:24.092Z,1021.05
2018-08-18T10:20:24.087Z,1020.99
2018-08-18T10:21:24.106Z,1021.00
2018-08-18T10:22:24.062Z,1020.98
2018-08-18T10:23:24.054Z,1020.93
2018-08-18T10:24:24.311Z,1020.96
2018-08-18T10:25:24.053Z,1021.01
2018-08-18T10:26:32.056Z,1021.03
2018-08-18T10:27:24.137Z,1020.99
2018-08-18T10:28:23.993Z,1021.02
2018-08-18T10:29:32.452Z,1020.96
2018-08-18T10:30:23.976Z,1020.97
2018-08-18T10:31:23.976Z,1020.94
2018-08-18T10:32:23.946Z,1020.95
2018-08-18T10:33:23.985Z,1020.94
2018-08-18T10:34:23.931Z,1020.99
2018-08-18T10:35:23.968Z,1021.09
2018-08-18T10:36:23.965Z,1021.05
2018-08-18T10:37:23.910Z,1021.06
2018-08-18T10:38:23.895Z,1021.17
2018-08-18T10:39:23.881Z,1021.00
2018-08-18T10:40:23.914Z,1021.07
2018-08-18T10:41:31.423Z,1021.00
2018-08-18T10:42:23.883Z,1020.99
2018-08-18T10:43:23.850Z,1020.99
2018-08-18T10:44:31.456Z,1020.95
2018-08-18T10:45:23.819Z,1021.02
2018-08-18T10:46:23.816Z,1020.94
2018-08-18T10:47:23.845Z,1020.94
2018-08-18T10:48:23.809Z,1020.91
2018-08-18T10:49:23.795Z,1020.95
2018-08-18T10:50:23.782Z,1020.95
2018-08-18T10:51:23.772Z,1020.90
2018-08-18T10:52:23.810Z,1020.97
2018-08-18T10:53:23.756Z,1020.95
2018-08-18T10:54:23.758Z,1020.98
2018-08-18T10:55:23.739Z,1020.95
2018-08-18T10:56:23.786Z,1020.96
2018-08-18T10:57:23.770Z,1020.96
2018-08-18T10:58:23.714Z,1021.07
2018-08-18T10:59:23.700Z,1021.05
2018-08-18T11:00:23.693Z,1020.85
2018-08-18T11:01:23.705Z,1020.53
2018-08-18T11:02:33.028Z,1020.53
2018-08-18T11:03:23.649Z,1020.49
2018-08-18T11:04:23.640Z,1020.61
2018-08-18T11:05:31.517Z,1020.91
2018-08-18T11:06:23.627Z,1020.89
2018-08-18T11:07:23.645Z,1020.55
2018-08-18T11:08:23.652Z,1020.40
2018-08-18T11:09:23.591Z,1020.85
2018-08-18T11:10:23.577Z,1020.85
2018-08-18T11:11:23.569Z,1020.87
2018-08-18T11:12:23.563Z,1020.93
2018-08-18T11:13:23.610Z,1020.84
2018-08-18T11:14:31.543Z,1020.90
2018-08-18T11:15:23.595Z,1020.58
2018-08-18T11:16:23.519Z,1020.80
2018-08-18T11:17:23.508Z,1020.47
2018-08-18T11:18:23.483Z,1020.86
2018-08-18T11:19:23.477Z,1020.51
2018-08-18T11:20:23.524Z,1020.40
2018-08-18T11:21:23.456Z,1020.41
2018-08-18T11:22:23.459Z,1020.75
2018-08-18T11:23:23.448Z,1020.75
2018-08-18T11:24:23.450Z,1020.75
2018-08-18T11:25:23.463Z,1020.71
2018-08-18T11:26:31.075Z,1020.61
2018-08-18T11:27:23.399Z,1020.61
2018-08-18T11:28:23.408Z,1020.51
2018-08-18T11:29:32.113Z,1020.49
2018-08-18T11:30:23.426Z,1020.40
2018-08-18T11:31:23.356Z,1020.59
2018-08-18T11:32:36.201Z,1020.35
2018-08-18T11:33:23.342Z,1020.36
2018-08-18T11:34:23.327Z,1020.39
2018-08-18T11:35:23.360Z,1020.35
2018-08-18T11:36:23.343Z,1020.74
2018-08-18T11:37:23.522Z,1020.79
2018-08-18T11:38:34.307Z,1020.46
2018-08-18T11:39:23.283Z,1020.84
2018-08-18T11:40:23.268Z,1020.84
2018-08-18T11:41:23.297Z,1020.33
2018-08-18T11:42:23.270Z,1020.64
2018-08-18T11:43:23.260Z,1020.80
2018-08-18T11:44:23.289Z,1020.84
2018-08-18T11:45:23.226Z,1020.86
2018-08-18T11:46:23.253Z,1020.89
2018-08-18T11:47:23.194Z,1020.78
2018-08-18T11:48:23.198Z,1020.91
2018-08-18T11:49:23.194Z,1020.98
2018-08-18T11:50:30.782Z,1020.87
2018-08-18T11:51:23.227Z,1020.88
2018-08-18T11:52:23.149Z,1020.82
2018-08-18T11:53:28.000Z,1020.85
2018-08-18T11:54:24.593Z,1020.74
2018-08-18T11:55:23.112Z,1020.76
2018-08-18T11:56:23.151Z,1020.40
2018-08-18T11:57:23.149Z,1020.33
2018-08-18T11:58:23.090Z,1020.67
2018-08-18T11:59:23.074Z,1020.81
2018-08-18T12:00:23.197Z,1020.80
2018-08-18T12:01:23.094Z,1020.78
2018-08-18T12:02:24.028Z,1020.79
2018-08-18T12:03:23.053Z,1020.85
2018-08-18T12:04:23.023Z,1020.77
2018-08-18T12:05:23.003Z,1020.84
2018-08-18T12:06:22.995Z,1020.73
2018-08-18T12:07:23.015Z,1020.77
2018-08-18T12:08:22.995Z,1020.68
2018-08-18T12:09:22.974Z,1020.68
2018-08-18T12:10:22.983Z,1020.61
2018-08-18T12:11:31.308Z,1020.66
2018-08-18T12:12:22.951Z,1020.51